sensor_id;sensor_type;location;lat;lon;timestamp;P1;durP1;ratioP1;P2;durP2;ratioP2
41685;SDS011;27370;42.764;23.432;2022-08-19T00:00:19;13.75;;;8.02;;
41685;SDS011;27370;42.764;23.432;2022-08-19T00:02:45;12.35;;;8.35;;
41685;SDS011;27370;42.764;23.432;2022-08-19T00:05:12;12.85;;;8.55;;
41685;SDS011;27370;42.764;23.432;2022-08-19T00:07:39;12.75;;;7.97;;
41685;SDS011;27370;42.764;23.432;2022-08-19T00:10:06;13.52;;;8.75;;
41685;SDS011;27370;42.764;23.432;2022-08-19T00:12:37;11.95;;;8.15;;
41685;SDS011;27370;42.764;23.432;2022-08-19T00:15:12;12.43;;;8.43;;
41685;SDS011;27370;42.764;23.432;2022-08-19T00:17:41;13.05;;;8.20;;
41685;SDS011;27370;42.764;23.432;2022-08-19T00:20:09;11.02;;;8.30;;
41685;SDS011;27370;42.764;23.432;2022-08-19T00:22:36;13.50;;;8.85;;
41685;SDS011;27370;42.764;23.432;2022-08-19T00:25:03;12.60;;;8.63;;
41685;SDS011;27370;42.764;23.432;2022-08-19T00:27:29;12.77;;;8.52;;
41685;SDS011;27370;42.764;23.432;2022-08-19T00:29:54;13.68;;;9.18;;
41685;SDS011;27370;42.764;23.432;2022-08-19T00:32:20;12.48;;;8.63;;
41685;SDS011;27370;42.764;23.432;2022-08-19T00:34:46;12.82;;;8.45;;
41685;SDS011;27370;42.764;23.432;2022-08-19T00:37:11;13.45;;;8.98;;
41685;SDS011;27370;42.764;23.432;2022-08-19T00:39:36;12.27;;;8.60;;
41685;SDS011;27370;42.764;23.432;2022-08-19T00:42:02;12.60;;;8.70;;
41685;SDS011;27370;42.764;23.432;2022-08-19T00:44:28;13.02;;;8.85;;
41685;SDS011;27370;42.764;23.432;2022-08-19T00:46:57;13.57;;;8.50;;
41685;SDS011;27370;42.764;23.432;2022-08-19T00:49:37;12.13;;;8.73;;
41685;SDS011;27370;42.764;23.432;2022-08-19T00:52:14;12.60;;;8.27;;
41685;SDS011;27370;42.764;23.432;2022-08-19T00:54:42;12.82;;;8.52;;
41685;SDS011;27370;42.764;23.432;2022-08-19T00:57:10;11.70;;;8.60;;
41685;SDS011;27370;42.764;23.432;2022-08-19T00:59:40;13.18;;;8.90;;
41685;SDS011;27370;42.764;23.432;2022-08-19T01:02:10;11.25;;;8.32;;
41685;SDS011;27370;42.764;23.432;2022-08-19T01:04:36;11.82;;;9.00;;
41685;SDS011;27370;42.764;23.432;2022-08-19T01:07:01;12.50;;;8.98;;
41685;SDS011;27370;42.764;23.432;2022-08-19T01:09:27;13.95;;;8.98;;
41685;SDS011;27370;42.764;23.432;2022-08-19T01:11:54;12.23;;;9.55;;
41685;SDS011;27370;42.764;23.432;2022-08-19T01:14:21;15.27;;;9.18;;
41685;SDS011;27370;42.764;23.432;2022-08-19T01:16:47;14.35;;;9.05;;
41685;SDS011;27370;42.764;23.432;2022-08-19T01:19:25;13.90;;;9.38;;
41685;SDS011;27370;42.764;23.432;2022-08-19T01:22:03;14.52;;;8.65;;
41685;SDS011;27370;42.764;23.432;2022-08-19T01:24:36;14.45;;;8.80;;
41685;SDS011;27370;42.764;23.432;2022-08-19T01:27:04;13.77;;;8.73;;
41685;SDS011;27370;42.764;23.432;2022-08-19T01:29:30;12.82;;;8.75;;
41685;SDS011;27370;42.764;23.432;2022-08-19T01:31:55;13.60;;;8.90;;
41685;SDS011;27370;42.764;23.432;2022-08-19T01:34:21;12.40;;;8.52;;
41685;SDS011;27370;42.764;23.432;2022-08-19T01:36:47;14.60;;;9.02;;
41685;SDS011;27370;42.764;23.432;2022-08-19T01:39:20;13.60;;;8.90;;
41685;SDS011;27370;42.764;23.432;2022-08-19T01:41:48;13.32;;;9.10;;
41685;SDS011;27370;42.764;23.432;2022-08-19T01:44:14;12.43;;;8.80;;
41685;SDS011;27370;42.764;23.432;2022-08-19T01:46:41;11.95;;;8.73;;
41685;SDS011;27370;42.764;23.432;2022-08-19T01:49:08;13.00;;;8.68;;
41685;SDS011;27370;42.764;23.432;2022-08-19T01:51:35;13.15;;;8.50;;
41685;SDS011;27370;42.764;23.432;2022-08-19T01:54:01;13.73;;;9.13;;
41685;SDS011;27370;42.764;23.432;2022-08-19T01:56:28;14.05;;;9.73;;
41685;SDS011;27370;42.764;23.432;2022-08-19T01:58:55;13.18;;;9.05;;
41685;SDS011;27370;42.764;23.432;2022-08-19T02:01:25;11.38;;;8.52;;
41685;SDS011;27370;42.764;23.432;2022-08-19T02:03:50;13.18;;;8.77;;
41685;SDS011;27370;42.764;23.432;2022-08-19T02:06:19;13.00;;;9.48;;
41685;SDS011;27370;42.764;23.432;2022-08-19T02:08:44;14.20;;;9.55;;
41685;SDS011;27370;42.764;23.432;2022-08-19T02:11:18;11.60;;;9.25;;
41685;SDS011;27370;42.764;23.432;2022-08-19T02:13:45;12.32;;;8.98;;
41685;SDS011;27370;42.764;23.432;2022-08-19T02:16:11;13.57;;;8.90;;
41685;SDS011;27370;42.764;23.432;2022-08-19T02:18:36;12.07;;;8.73;;
41685;SDS011;27370;42.764;23.432;2022-08-19T02:21:02;12.50;;;9.00;;
41685;SDS011;27370;42.764;23.432;2022-08-19T02:23:27;12.07;;;8.45;;
41685;SDS011;27370;42.764;23.432;2022-08-19T02:25:53;11.38;;;8.20;;
41685;SDS011;27370;42.764;23.432;2022-08-19T02:28:18;14.55;;;8.98;;
41685;SDS011;27370;42.764;23.432;2022-08-19T02:30:44;12.50;;;9.27;;
41685;SDS011;27370;42.764;23.432;2022-08-19T02:33:10;12.32;;;9.00;;
41685;SDS011;27370;42.764;23.432;2022-08-19T02:35:36;13.38;;;8.73;;
41685;SDS011;27370;42.764;23.432;2022-08-19T02:38:01;11.38;;;8.52;;
41685;SDS011;27370;42.764;23.432;2022-08-19T02:40:49;13.45;;;8.77;;
41685;SDS011;27370;42.764;23.432;2022-08-19T02:43:18;12.52;;;9.20;;
41685;SDS011;27370;42.764;23.432;2022-08-19T02:45:45;12.43;;;8.90;;
41685;SDS011;27370;42.764;23.432;2022-08-19T02:48:14;11.43;;;8.70;;
41685;SDS011;27370;42.764;23.432;2022-08-19T02:50:42;11.75;;;9.32;;
41685;SDS011;27370;42.764;23.432;2022-08-19T02:53:09;11.60;;;8.68;;
41685;SDS011;27370;42.764;23.432;2022-08-19T02:55:35;13.10;;;9.27;;
41685;SDS011;27370;42.764;23.432;2022-08-19T02:58:00;14.25;;;9.23;;
41685;SDS011;27370;42.764;23.432;2022-08-19T03:00:26;13.43;;;9.05;;
41685;SDS011;27370;42.764;23.432;2022-08-19T03:02:52;12.90;;;9.32;;
41685;SDS011;27370;42.764;23.432;2022-08-19T03:05:18;15.45;;;9.68;;
41685;SDS011;27370;42.764;23.432;2022-08-19T03:07:44;14.25;;;10.05;;
41685;SDS011;27370;42.764;23.432;2022-08-19T03:10:11;14.45;;;10.10;;
41685;SDS011;27370;42.764;23.432;2022-08-19T03:12:37;14.52;;;9.98;;
41685;SDS011;27370;42.764;23.432;2022-08-19T03:15:07;14.52;;;10.35;;
41685;SDS011;27370;42.764;23.432;2022-08-19T03:19:59;14.85;;;10.55;;
41685;SDS011;27370;42.764;23.432;2022-08-19T03:22:25;17.27;;;10.52;;
41685;SDS011;27370;42.764;23.432;2022-08-19T03:24:50;15.90;;;11.10;;
41685;SDS011;27370;42.764;23.432;2022-08-19T03:27:16;18.33;;;10.77;;
41685;SDS011;27370;42.764;23.432;2022-08-19T03:29:42;17.65;;;11.10;;
41685;SDS011;27370;42.764;23.432;2022-08-19T03:32:08;20.50;;;11.02;;
41685;SDS011;27370;42.764;23.432;2022-08-19T03:34:34;15.57;;;10.82;;
41685;SDS011;27370;42.764;23.432;2022-08-19T03:37:04;18.00;;;11.45;;
41685;SDS011;27370;42.764;23.432;2022-08-19T03:39:31;21.50;;;11.05;;
41685;SDS011;27370;42.764;23.432;2022-08-19T03:41:57;15.52;;;10.90;;
41685;SDS011;27370;42.764;23.432;2022-08-19T03:44:26;15.77;;;11.52;;
41685;SDS011;27370;42.764;23.432;2022-08-19T03:46:53;17.05;;;11.85;;
41685;SDS011;27370;42.764;23.432;2022-08-19T03:49:20;15.30;;;11.10;;
41685;SDS011;27370;42.764;23.432;2022-08-19T03:51:47;16.58;;;10.90;;
41685;SDS011;27370;42.764;23.432;2022-08-19T03:54:14;16.77;;;11.88;;
41685;SDS011;27370;42.764;23.432;2022-08-19T03:56:42;17.45;;;12.10;;
41685;SDS011;27370;42.764;23.432;2022-08-19T03:59:11;16.40;;;11.45;;
41685;SDS011;27370;42.764;23.432;2022-08-19T04:04:04;16.35;;;12.23;;
41685;SDS011;27370;42.764;23.432;2022-08-19T04:06:32;17.92;;;11.80;;
41685;SDS011;27370;42.764;23.432;2022-08-19T04:09:00;15.43;;;11.60;;
41685;SDS011;27370;42.764;23.432;2022-08-19T04:11:29;18.10;;;12.75;;
41685;SDS011;27370;42.764;23.432;2022-08-19T04:14:00;15.70;;;12.00;;
41685;SDS011;27370;42.764;23.432;2022-08-19T04:16:26;15.95;;;11.43;;
41685;SDS011;27370;42.764;23.432;2022-08-19T04:18:56;15.38;;;11.18;;
41685;SDS011;27370;42.764;23.432;2022-08-19T04:21:25;14.30;;;11.20;;
41685;SDS011;27370;42.764;23.432;2022-08-19T04:23:51;15.25;;;11.30;;
41685;SDS011;27370;42.764;23.432;2022-08-19T04:26:20;27.05;;;15.57;;
41685;SDS011;27370;42.764;23.432;2022-08-19T04:28:47;35.47;;;17.63;;
41685;SDS011;27370;42.764;23.432;2022-08-19T04:31:14;23.85;;;13.93;;
41685;SDS011;27370;42.764;23.432;2022-08-19T04:33:42;28.00;;;16.05;;
41685;SDS011;27370;42.764;23.432;2022-08-19T04:36:08;29.88;;;15.88;;
41685;SDS011;27370;42.764;23.432;2022-08-19T04:38:41;24.45;;;13.75;;
41685;SDS011;27370;42.764;23.432;2022-08-19T04:41:06;22.95;;;13.50;;
41685;SDS011;27370;42.764;23.432;2022-08-19T04:43:50;17.33;;;11.40;;
41685;SDS011;27370;42.764;23.432;2022-08-19T04:46:16;18.02;;;12.02;;
41685;SDS011;27370;42.764;23.432;2022-08-19T04:48:42;18.10;;;10.93;;
41685;SDS011;27370;42.764;23.432;2022-08-19T04:51:09;15.63;;;11.13;;
41685;SDS011;27370;42.764;23.432;2022-08-19T04:56:06;17.67;;;11.30;;
41685;SDS011;27370;42.764;23.432;2022-08-19T04:58:36;15.45;;;11.32;;
41685;SDS011;27370;42.764;23.432;2022-08-19T05:01:02;17.85;;;11.23;;
41685;SDS011;27370;42.764;23.432;2022-08-19T05:03:28;18.52;;;11.13;;
41685;SDS011;27370;42.764;23.432;2022-08-19T05:06:03;15.02;;;10.45;;
41685;SDS011;27370;42.764;23.432;2022-08-19T05:08:33;16.17;;;10.80;;
41685;SDS011;27370;42.764;23.432;2022-08-19T05:11:00;14.57;;;10.05;;
41685;SDS011;27370;42.764;23.432;2022-08-19T05:13:26;19.20;;;10.30;;
41685;SDS011;27370;42.764;23.432;2022-08-19T05:15:58;13.40;;;9.65;;
41685;SDS011;27370;42.764;23.432;2022-08-19T05:18:25;13.65;;;10.05;;
41685;SDS011;27370;42.764;23.432;2022-08-19T05:21:10;15.95;;;10.13;;
41685;SDS011;27370;42.764;23.432;2022-08-19T05:23:56;13.50;;;10.18;;
41685;SDS011;27370;42.764;23.432;2022-08-19T05:26:22;17.48;;;10.18;;
41685;SDS011;27370;42.764;23.432;2022-08-19T05:28:51;13.13;;;9.75;;
41685;SDS011;27370;42.764;23.432;2022-08-19T05:31:20;14.25;;;9.60;;
41685;SDS011;27370;42.764;23.432;2022-08-19T05:33:46;13.68;;;9.45;;
41685;SDS011;27370;42.764;23.432;2022-08-19T05:36:12;14.85;;;9.98;;
41685;SDS011;27370;42.764;23.432;2022-08-19T05:38:39;13.52;;;9.57;;
41685;SDS011;27370;42.764;23.432;2022-08-19T05:41:11;15.15;;;9.40;;
41685;SDS011;27370;42.764;23.432;2022-08-19T05:43:42;13.70;;;8.93;;
41685;SDS011;27370;42.764;23.432;2022-08-19T05:46:07;12.50;;;9.07;;
41685;SDS011;27370;42.764;23.432;2022-08-19T05:48:34;12.30;;;8.82;;
41685;SDS011;27370;42.764;23.432;2022-08-19T05:51:07;13.25;;;8.32;;
41685;SDS011;27370;42.764;23.432;2022-08-19T05:53:33;12.45;;;8.35;;
41685;SDS011;27370;42.764;23.432;2022-08-19T05:56:06;13.13;;;8.40;;
41685;SDS011;27370;42.764;23.432;2022-08-19T05:58:34;12.02;;;7.47;;
41685;SDS011;27370;42.764;23.432;2022-08-19T06:01:01;13.13;;;7.97;;
41685;SDS011;27370;42.764;23.432;2022-08-19T06:03:33;12.18;;;7.90;;
41685;SDS011;27370;42.764;23.432;2022-08-19T06:06:01;13.65;;;8.80;;
41685;SDS011;27370;42.764;23.432;2022-08-19T06:08:27;12.52;;;8.02;;
41685;SDS011;27370;42.764;23.432;2022-08-19T06:10:53;11.40;;;7.88;;
41685;SDS011;27370;42.764;23.432;2022-08-19T06:13:19;13.90;;;8.30;;
41685;SDS011;27370;42.764;23.432;2022-08-19T06:15:45;12.18;;;8.13;;
41685;SDS011;27370;42.764;23.432;2022-08-19T06:18:14;12.80;;;8.07;;
41685;SDS011;27370;42.764;23.432;2022-08-19T06:20:41;14.38;;;8.35;;
41685;SDS011;27370;42.764;23.432;2022-08-19T06:23:07;12.13;;;7.93;;
41685;SDS011;27370;42.764;23.432;2022-08-19T06:25:34;13.43;;;8.85;;
41685;SDS011;27370;42.764;23.432;2022-08-19T06:28:00;11.50;;;8.40;;
41685;SDS011;27370;42.764;23.432;2022-08-19T06:30:26;13.18;;;8.10;;
41685;SDS011;27370;42.764;23.432;2022-08-19T06:32:52;16.45;;;8.05;;
41685;SDS011;27370;42.764;23.432;2022-08-19T06:35:18;13.43;;;7.32;;
41685;SDS011;27370;42.764;23.432;2022-08-19T06:37:43;12.50;;;7.25;;
41685;SDS011;27370;42.764;23.432;2022-08-19T06:40:09;12.70;;;6.63;;
41685;SDS011;27370;42.764;23.432;2022-08-19T06:42:36;13.73;;;7.03;;
41685;SDS011;27370;42.764;23.432;2022-08-19T06:45:03;13.43;;;7.35;;
41685;SDS011;27370;42.764;23.432;2022-08-19T06:47:29;13.18;;;7.43;;
41685;SDS011;27370;42.764;23.432;2022-08-19T06:49:57;12.32;;;6.85;;
41685;SDS011;27370;42.764;23.432;2022-08-19T06:52:31;12.15;;;6.65;;
41685;SDS011;27370;42.764;23.432;2022-08-19T06:54:58;12.07;;;7.00;;
41685;SDS011;27370;42.764;23.432;2022-08-19T06:57:24;10.55;;;7.15;;
41685;SDS011;27370;42.764;23.432;2022-08-19T06:59:51;11.90;;;6.50;;
41685;SDS011;27370;42.764;23.432;2022-08-19T07:02:17;11.13;;;6.30;;
41685;SDS011;27370;42.764;23.432;2022-08-19T07:04:43;11.05;;;6.60;;
41685;SDS011;27370;42.764;23.432;2022-08-19T07:07:09;10.10;;;6.47;;
41685;SDS011;27370;42.764;23.432;2022-08-19T07:09:38;10.13;;;5.80;;
41685;SDS011;27370;42.764;23.432;2022-08-19T07:12:07;12.43;;;6.57;;
41685;SDS011;27370;42.764;23.432;2022-08-19T07:14:35;12.00;;;5.40;;
41685;SDS011;27370;42.764;23.432;2022-08-19T07:17:05;12.40;;;6.25;;
41685;SDS011;27370;42.764;23.432;2022-08-19T07:19:34;11.93;;;5.70;;
41685;SDS011;27370;42.764;23.432;2022-08-19T07:22:00;11.05;;;6.30;;
41685;SDS011;27370;42.764;23.432;2022-08-19T07:24:28;11.88;;;6.30;;
41685;SDS011;27370;42.764;23.432;2022-08-19T07:26:56;11.73;;;6.05;;
41685;SDS011;27370;42.764;23.432;2022-08-19T07:29:26;12.18;;;5.85;;
41685;SDS011;27370;42.764;23.432;2022-08-19T07:31:53;9.75;;;5.57;;
41685;SDS011;27370;42.764;23.432;2022-08-19T07:34:21;9.77;;;5.60;;
41685;SDS011;27370;42.764;23.432;2022-08-19T07:36:48;10.98;;;5.40;;
41685;SDS011;27370;42.764;23.432;2022-08-19T07:39:16;11.45;;;5.30;;
41685;SDS011;27370;42.764;23.432;2022-08-19T07:44:11;11.15;;;5.25;;
41685;SDS011;27370;42.764;23.432;2022-08-19T07:46:38;9.88;;;5.13;;
41685;SDS011;27370;42.764;23.432;2022-08-19T07:49:06;10.55;;;5.22;;
41685;SDS011;27370;42.764;23.432;2022-08-19T07:51:33;11.68;;;5.28;;
41685;SDS011;27370;42.764;23.432;2022-08-19T07:53:59;10.85;;;4.50;;
41685;SDS011;27370;42.764;23.432;2022-08-19T07:56:25;8.77;;;4.32;;
41685;SDS011;27370;42.764;23.432;2022-08-19T07:58:51;9.95;;;4.25;;
41685;SDS011;27370;42.764;23.432;2022-08-19T08:01:19;16.42;;;6.82;;
41685;SDS011;27370;42.764;23.432;2022-08-19T08:03:48;21.77;;;12.77;;
41685;SDS011;27370;42.764;23.432;2022-08-19T08:06:33;7.80;;;4.45;;
41685;SDS011;27370;42.764;23.432;2022-08-19T08:09:20;8.10;;;4.18;;
41685;SDS011;27370;42.764;23.432;2022-08-19T08:11:55;9.95;;;4.50;;
41685;SDS011;27370;42.764;23.432;2022-08-19T08:14:26;10.82;;;4.60;;
41685;SDS011;27370;42.764;23.432;2022-08-19T08:16:54;8.73;;;4.28;;
41685;SDS011;27370;42.764;23.432;2022-08-19T08:19:20;9.57;;;4.80;;
41685;SDS011;27370;42.764;23.432;2022-08-19T08:21:48;8.45;;;4.82;;
41685;SDS011;27370;42.764;23.432;2022-08-19T08:24:14;9.95;;;4.60;;
41685;SDS011;27370;42.764;23.432;2022-08-19T08:26:41;10.20;;;4.78;;
41685;SDS011;27370;42.764;23.432;2022-08-19T08:29:09;9.02;;;4.95;;
41685;SDS011;27370;42.764;23.432;2022-08-19T08:31:36;7.85;;;4.40;;
41685;SDS011;27370;42.764;23.432;2022-08-19T08:34:03;9.48;;;4.70;;
41685;SDS011;27370;42.764;23.432;2022-08-19T08:36:28;7.72;;;4.43;;
41685;SDS011;27370;42.764;23.432;2022-08-19T08:38:58;28.95;;;20.40;;
41685;SDS011;27370;42.764;23.432;2022-08-19T08:44:05;12.73;;;6.40;;
41685;SDS011;27370;42.764;23.432;2022-08-19T08:46:35;14.10;;;5.05;;
41685;SDS011;27370;42.764;23.432;2022-08-19T08:51:51;11.90;;;4.43;;
41685;SDS011;27370;42.764;23.432;2022-08-19T08:54:23;7.68;;;4.40;;
41685;SDS011;27370;42.764;23.432;2022-08-19T08:56:51;9.65;;;5.05;;
41685;SDS011;27370;42.764;23.432;2022-08-19T09:01:50;10.63;;;4.43;;
41685;SDS011;27370;42.764;23.432;2022-08-19T09:04:16;9.38;;;4.50;;
41685;SDS011;27370;42.764;23.432;2022-08-19T09:09:39;11.13;;;4.13;;
41685;SDS011;27370;42.764;23.432;2022-08-19T09:12:10;10.93;;;4.80;;
41685;SDS011;27370;42.764;23.432;2022-08-19T09:14:46;9.45;;;4.70;;
41685;SDS011;27370;42.764;23.432;2022-08-19T09:17:16;10.68;;;4.78;;
41685;SDS011;27370;42.764;23.432;2022-08-19T09:22:16;12.93;;;4.82;;
41685;SDS011;27370;42.764;23.432;2022-08-19T09:24:41;10.55;;;4.65;;
41685;SDS011;27370;42.764;23.432;2022-08-19T09:27:07;8.10;;;4.13;;
41685;SDS011;27370;42.764;23.432;2022-08-19T09:29:32;10.05;;;4.00;;
41685;SDS011;27370;42.764;23.432;2022-08-19T09:31:58;9.15;;;3.95;;
41685;SDS011;27370;42.764;23.432;2022-08-19T09:34:23;10.80;;;4.75;;
41685;SDS011;27370;42.764;23.432;2022-08-19T09:36:49;9.27;;;4.38;;
41685;SDS011;27370;42.764;23.432;2022-08-19T09:39:18;9.40;;;4.68;;
41685;SDS011;27370;42.764;23.432;2022-08-19T09:41:43;8.48;;;4.20;;
41685;SDS011;27370;42.764;23.432;2022-08-19T09:44:09;7.68;;;4.13;;
41685;SDS011;27370;42.764;23.432;2022-08-19T09:46:37;8.18;;;3.88;;
41685;SDS011;27370;42.764;23.432;2022-08-19T09:49:02;9.45;;;4.18;;
41685;SDS011;27370;42.764;23.432;2022-08-19T09:51:30;8.32;;;4.13;;
41685;SDS011;27370;42.764;23.432;2022-08-19T09:53:58;8.93;;;3.65;;
41685;SDS011;27370;42.764;23.432;2022-08-19T09:56:25;7.55;;;3.75;;
41685;SDS011;27370;42.764;23.432;2022-08-19T09:58:50;10.20;;;4.13;;
41685;SDS011;27370;42.764;23.432;2022-08-19T10:01:17;9.27;;;3.95;;
41685;SDS011;27370;42.764;23.432;2022-08-19T10:03:49;8.77;;;3.55;;
41685;SDS011;27370;42.764;23.432;2022-08-19T10:06:18;6.82;;;3.67;;
41685;SDS011;27370;42.764;23.432;2022-08-19T10:08:45;7.20;;;3.80;;
41685;SDS011;27370;42.764;23.432;2022-08-19T10:11:11;6.45;;;3.63;;
41685;SDS011;27370;42.764;23.432;2022-08-19T10:13:37;7.65;;;3.95;;
41685;SDS011;27370;42.764;23.432;2022-08-19T10:16:04;9.10;;;3.72;;
41685;SDS011;27370;42.764;23.432;2022-08-19T10:18:32;8.60;;;3.78;;
41685;SDS011;27370;42.764;23.432;2022-08-19T10:23:57;9.15;;;3.58;;
41685;SDS011;27370;42.764;23.432;2022-08-19T10:28:51;7.07;;;3.53;;
41685;SDS011;27370;42.764;23.432;2022-08-19T10:31:21;6.55;;;3.80;;
41685;SDS011;27370;42.764;23.432;2022-08-19T10:33:49;7.50;;;3.67;;
41685;SDS011;27370;42.764;23.432;2022-08-19T10:36:18;9.35;;;3.60;;
41685;SDS011;27370;42.764;23.432;2022-08-19T10:38:49;6.05;;;3.42;;
41685;SDS011;27370;42.764;23.432;2022-08-19T10:41:21;7.85;;;3.50;;
41685;SDS011;27370;42.764;23.432;2022-08-19T10:43:52;7.53;;;3.50;;
41685;SDS011;27370;42.764;23.432;2022-08-19T10:46:19;6.68;;;3.88;;
41685;SDS011;27370;42.764;23.432;2022-08-19T10:48:47;6.22;;;3.47;;
41685;SDS011;27370;42.764;23.432;2022-08-19T10:51:12;6.05;;;3.40;;
41685;SDS011;27370;42.764;23.432;2022-08-19T10:53:57;9.98;;;3.72;;
41685;SDS011;27370;42.764;23.432;2022-08-19T10:56:23;6.13;;;3.60;;
41685;SDS011;27370;42.764;23.432;2022-08-19T10:59:08;6.93;;;3.72;;
41685;SDS011;27370;42.764;23.432;2022-08-19T11:01:34;7.15;;;3.67;;
41685;SDS011;27370;42.764;23.432;2022-08-19T11:04:00;6.45;;;3.53;;
41685;SDS011;27370;42.764;23.432;2022-08-19T11:06:27;7.45;;;3.47;;
41685;SDS011;27370;42.764;23.432;2022-08-19T11:08:53;10.10;;;3.80;;
41685;SDS011;27370;42.764;23.432;2022-08-19T11:11:19;7.03;;;3.83;;
41685;SDS011;27370;42.764;23.432;2022-08-19T11:13:46;7.18;;;4.03;;
41685;SDS011;27370;42.764;23.432;2022-08-19T11:16:14;7.50;;;3.67;;
41685;SDS011;27370;42.764;23.432;2022-08-19T11:18:43;6.43;;;3.85;;
41685;SDS011;27370;42.764;23.432;2022-08-19T11:21:15;7.18;;;4.05;;
41685;SDS011;27370;42.764;23.432;2022-08-19T11:23:47;8.48;;;3.85;;
41685;SDS011;27370;42.764;23.432;2022-08-19T11:26:14;9.18;;;3.63;;
41685;SDS011;27370;42.764;23.432;2022-08-19T11:28:40;7.18;;;3.90;;
41685;SDS011;27370;42.764;23.432;2022-08-19T11:31:14;8.10;;;3.63;;
41685;SDS011;27370;42.764;23.432;2022-08-19T11:33:41;8.13;;;3.70;;
41685;SDS011;27370;42.764;23.432;2022-08-19T11:36:07;9.85;;;4.35;;
41685;SDS011;27370;42.764;23.432;2022-08-19T11:38:33;7.85;;;4.00;;
41685;SDS011;27370;42.764;23.432;2022-08-19T11:41:02;7.07;;;3.88;;
41685;SDS011;27370;42.764;23.432;2022-08-19T11:43:30;7.15;;;3.65;;
41685;SDS011;27370;42.764;23.432;2022-08-19T11:45:57;6.38;;;3.75;;
41685;SDS011;27370;42.764;23.432;2022-08-19T11:48:23;8.27;;;3.83;;
41685;SDS011;27370;42.764;23.432;2022-08-19T11:50:49;9.05;;;3.78;;
41685;SDS011;27370;42.764;23.432;2022-08-19T11:53:19;7.88;;;3.70;;
41685;SDS011;27370;42.764;23.432;2022-08-19T11:55:48;5.85;;;3.47;;
41685;SDS011;27370;42.764;23.432;2022-08-19T11:58:14;8.00;;;4.00;;
41685;SDS011;27370;42.764;23.432;2022-08-19T12:00:42;7.85;;;4.03;;
41685;SDS011;27370;42.764;23.432;2022-08-19T12:03:10;8.13;;;3.90;;
41685;SDS011;27370;42.764;23.432;2022-08-19T12:05:38;10.40;;;4.13;;
41685;SDS011;27370;42.764;23.432;2022-08-19T12:08:05;5.38;;;3.83;;
41685;SDS011;27370;42.764;23.432;2022-08-19T12:10:31;5.97;;;3.60;;
41685;SDS011;27370;42.764;23.432;2022-08-19T12:12:58;7.97;;;4.18;;
41685;SDS011;27370;42.764;23.432;2022-08-19T12:15:23;8.05;;;3.92;;
41685;SDS011;27370;42.764;23.432;2022-08-19T12:17:48;8.65;;;3.92;;
41685;SDS011;27370;42.764;23.432;2022-08-19T12:20:14;9.27;;;4.20;;
41685;SDS011;27370;42.764;23.432;2022-08-19T12:22:42;6.65;;;3.72;;
41685;SDS011;27370;42.764;23.432;2022-08-19T12:25:09;7.22;;;3.90;;
41685;SDS011;27370;42.764;23.432;2022-08-19T12:27:35;6.85;;;3.95;;
41685;SDS011;27370;42.764;23.432;2022-08-19T12:30:02;7.63;;;3.92;;
41685;SDS011;27370;42.764;23.432;2022-08-19T12:32:29;8.30;;;4.20;;
41685;SDS011;27370;42.764;23.432;2022-08-19T12:34:54;5.95;;;3.50;;
41685;SDS011;27370;42.764;23.432;2022-08-19T12:37:20;7.95;;;3.90;;
41685;SDS011;27370;42.764;23.432;2022-08-19T12:39:45;6.10;;;3.75;;
41685;SDS011;27370;42.764;23.432;2022-08-19T12:42:11;9.23;;;4.25;;
41685;SDS011;27370;42.764;23.432;2022-08-19T12:44:39;6.57;;;4.10;;
41685;SDS011;27370;42.764;23.432;2022-08-19T12:47:06;8.20;;;4.40;;
41685;SDS011;27370;42.764;23.432;2022-08-19T12:49:33;7.07;;;4.00;;
41685;SDS011;27370;42.764;23.432;2022-08-19T12:52:01;7.90;;;4.10;;
41685;SDS011;27370;42.764;23.432;2022-08-19T12:54:31;8.20;;;4.00;;
41685;SDS011;27370;42.764;23.432;2022-08-19T12:56:57;7.75;;;3.70;;
41685;SDS011;27370;42.764;23.432;2022-08-19T12:59:23;10.75;;;4.10;;
41685;SDS011;27370;42.764;23.432;2022-08-19T13:01:48;6.78;;;3.83;;
41685;SDS011;27370;42.764;23.432;2022-08-19T13:04:14;7.25;;;4.13;;
41685;SDS011;27370;42.764;23.432;2022-08-19T13:06:40;8.05;;;3.92;;
41685;SDS011;27370;42.764;23.432;2022-08-19T13:09:07;11.32;;;4.45;;
41685;SDS011;27370;42.764;23.432;2022-08-19T13:11:33;8.00;;;4.05;;
41685;SDS011;27370;42.764;23.432;2022-08-19T13:14:00;9.13;;;3.90;;
41685;SDS011;27370;42.764;23.432;2022-08-19T13:16:27;7.17;;;3.60;;
41685;SDS011;27370;42.764;23.432;2022-08-19T13:18:53;7.28;;;3.80;;
41685;SDS011;27370;42.764;23.432;2022-08-19T13:21:21;9.52;;;4.20;;
41685;SDS011;27370;42.764;23.432;2022-08-19T13:26:15;9.65;;;4.10;;
41685;SDS011;27370;42.764;23.432;2022-08-19T13:28:41;8.95;;;4.20;;
41685;SDS011;27370;42.764;23.432;2022-08-19T13:31:27;6.72;;;4.10;;
41685;SDS011;27370;42.764;23.432;2022-08-19T13:34:14;6.57;;;3.88;;
41685;SDS011;27370;42.764;23.432;2022-08-19T13:36:40;7.05;;;3.78;;
41685;SDS011;27370;42.764;23.432;2022-08-19T13:39:06;9.18;;;4.25;;
41685;SDS011;27370;42.764;23.432;2022-08-19T13:41:35;7.63;;;4.40;;
41685;SDS011;27370;42.764;23.432;2022-08-19T13:44:03;8.70;;;3.95;;
41685;SDS011;27370;42.764;23.432;2022-08-19T13:46:28;8.55;;;4.20;;
41685;SDS011;27370;42.764;23.432;2022-08-19T13:48:55;8.02;;;4.20;;
41685;SDS011;27370;42.764;23.432;2022-08-19T13:51:21;9.15;;;4.00;;
41685;SDS011;27370;42.764;23.432;2022-08-19T13:53:47;8.60;;;4.30;;
41685;SDS011;27370;42.764;23.432;2022-08-19T13:56:14;10.60;;;4.13;;
41685;SDS011;27370;42.764;23.432;2022-08-19T13:58:41;9.68;;;4.00;;
41685;SDS011;27370;42.764;23.432;2022-08-19T14:01:07;9.10;;;3.95;;
41685;SDS011;27370;42.764;23.432;2022-08-19T14:03:34;6.50;;;4.05;;
41685;SDS011;27370;42.764;23.432;2022-08-19T14:06:00;8.98;;;4.10;;
41685;SDS011;27370;42.764;23.432;2022-08-19T14:08:27;8.68;;;4.28;;
41685;SDS011;27370;42.764;23.432;2022-08-19T14:10:57;9.55;;;3.75;;
41685;SDS011;27370;42.764;23.432;2022-08-19T14:13:23;10.13;;;4.63;;
41685;SDS011;27370;42.764;23.432;2022-08-19T14:15:49;9.50;;;3.88;;
41685;SDS011;27370;42.764;23.432;2022-08-19T14:18:16;8.38;;;4.00;;
41685;SDS011;27370;42.764;23.432;2022-08-19T14:20:43;8.50;;;4.20;;
41685;SDS011;27370;42.764;23.432;2022-08-19T14:23:09;7.32;;;4.22;;
41685;SDS011;27370;42.764;23.432;2022-08-19T14:25:34;9.18;;;4.25;;
41685;SDS011;27370;42.764;23.432;2022-08-19T14:28:00;9.93;;;4.10;;
41685;SDS011;27370;42.764;23.432;2022-08-19T14:30:30;8.68;;;4.40;;
41685;SDS011;27370;42.764;23.432;2022-08-19T14:32:58;8.10;;;4.13;;
41685;SDS011;27370;42.764;23.432;2022-08-19T14:35:25;8.80;;;4.13;;
41685;SDS011;27370;42.764;23.432;2022-08-19T14:37:53;7.97;;;4.20;;
41685;SDS011;27370;42.764;23.432;2022-08-19T14:40:20;9.18;;;4.50;;
41685;SDS011;27370;42.764;23.432;2022-08-19T14:42:54;12.75;;;4.80;;
41685;SDS011;27370;42.764;23.432;2022-08-19T14:45:25;8.73;;;4.40;;
41685;SDS011;27370;42.764;23.432;2022-08-19T14:47:52;14.30;;;4.70;;
41685;SDS011;27370;42.764;23.432;2022-08-19T14:50:18;8.35;;;4.25;;
41685;SDS011;27370;42.764;23.432;2022-08-19T14:52:44;9.35;;;4.78;;
41685;SDS011;27370;42.764;23.432;2022-08-19T14:55:13;8.82;;;4.20;;
41685;SDS011;27370;42.764;23.432;2022-08-19T14:57:40;11.80;;;4.60;;
41685;SDS011;27370;42.764;23.432;2022-08-19T15:00:06;9.90;;;4.43;;